sensor_id;sensor_type;location;lat;lon;timestamp;P1;durP1;ratioP1;P2;durP2;ratioP2
57561;SDS011;43397;51.530;5.974;2022-09-20T00:01:21;9.55;;;3.15;;
57561;SDS011;43397;51.530;5.974;2022-09-20T00:03:49;9.93;;;2.88;;
57561;SDS011;43397;51.530;5.974;2022-09-20T00:06:17;8.40;;;2.40;;
57561;SDS011;43397;51.530;5.974;2022-09-20T00:08:44;9.27;;;2.45;;
57561;SDS011;43397;51.530;5.974;2022-09-20T00:11:11;9.70;;;2.67;;
57561;SDS011;43397;51.530;5.974;2022-09-20T00:13:41;8.88;;;2.47;;
57561;SDS011;43397;51.530;5.974;2022-09-20T00:16:08;9.52;;;2.40;;
57561;SDS011;43397;51.530;5.974;2022-09-20T00:18:35;8.13;;;2.33;;
57561;SDS011;43397;51.530;5.974;2022-09-20T00:21:02;8.45;;;2.53;;
57561;SDS011;43397;51.530;5.974;2022-09-20T00:23:29;7.95;;;2.30;;
57561;SDS011;43397;51.530;5.974;2022-09-20T00:25:56;7.72;;;2.40;;
57561;SDS011;43397;51.530;5.974;2022-09-20T00:28:23;9.25;;;2.25;;
57561;SDS011;43397;51.530;5.974;2022-09-20T00:30:52;9.65;;;2.70;;
57561;SDS011;43397;51.530;5.974;2022-09-20T00:33:19;9.82;;;2.50;;
57561;SDS011;43397;51.530;5.974;2022-09-20T00:35:45;9.13;;;2.97;;
57561;SDS011;43397;51.530;5.974;2022-09-20T00:38:11;8.50;;;2.63;;
57561;SDS011;43397;51.530;5.974;2022-09-20T00:40:37;10.10;;;2.58;;
57561;SDS011;43397;51.530;5.974;2022-09-20T00:43:03;11.38;;;2.47;;
57561;SDS011;43397;51.530;5.974;2022-09-20T00:45:29;12.07;;;2.60;;
57561;SDS011;43397;51.530;5.974;2022-09-20T00:47:58;7.82;;;2.95;;
57561;SDS011;43397;51.530;5.974;2022-09-20T00:50:30;7.95;;;2.75;;
57561;SDS011;43397;51.530;5.974;2022-09-20T00:53:02;11.88;;;3.20;;
57561;SDS011;43397;51.530;5.974;2022-09-20T00:55:31;8.13;;;2.47;;
57561;SDS011;43397;51.530;5.974;2022-09-20T00:57:59;8.20;;;2.53;;
57561;SDS011;43397;51.530;5.974;2022-09-20T01:00:26;6.90;;;2.65;;
57561;SDS011;43397;51.530;5.974;2022-09-20T01:02:52;6.75;;;2.75;;
57561;SDS011;43397;51.530;5.974;2022-09-20T01:05:24;7.13;;;2.03;;
57561;SDS011;43397;51.530;5.974;2022-09-20T01:07:51;9.98;;;2.67;;
57561;SDS011;43397;51.530;5.974;2022-09-20T01:10:17;8.43;;;2.53;;
57561;SDS011;43397;51.530;5.974;2022-09-20T01:12:43;9.38;;;2.70;;
57561;SDS011;43397;51.530;5.974;2022-09-20T01:15:10;12.57;;;2.80;;
57561;SDS011;43397;51.530;5.974;2022-09-20T01:17:38;8.88;;;3.13;;
57561;SDS011;43397;51.530;5.974;2022-09-20T01:20:10;12.13;;;2.92;;
57561;SDS011;43397;51.530;5.974;2022-09-20T01:22:42;8.13;;;3.72;;
57561;SDS011;43397;51.530;5.974;2022-09-20T01:25:29;8.07;;;2.97;;
57561;SDS011;43397;51.530;5.974;2022-09-20T01:28:17;7.53;;;2.75;;
57561;SDS011;43397;51.530;5.974;2022-09-20T01:30:44;9.93;;;3.55;;
57561;SDS011;43397;51.530;5.974;2022-09-20T01:33:15;12.60;;;3.72;;
57561;SDS011;43397;51.530;5.974;2022-09-20T01:35:48;7.55;;;3.28;;
57561;SDS011;43397;51.530;5.974;2022-09-20T01:38:20;7.80;;;3.22;;
57561;SDS011;43397;51.530;5.974;2022-09-20T01:40:57;7.25;;;3.15;;
57561;SDS011;43397;51.530;5.974;2022-09-20T01:43:30;10.75;;;3.40;;
57561;SDS011;43397;51.530;5.974;2022-09-20T01:46:01;10.73;;;4.07;;
57561;SDS011;43397;51.530;5.974;2022-09-20T01:48:34;10.30;;;3.85;;
57561;SDS011;43397;51.530;5.974;2022-09-20T01:51:23;11.75;;;4.13;;
57561;SDS011;43397;51.530;5.974;2022-09-20T01:56:41;9.85;;;3.60;;
57561;SDS011;43397;51.530;5.974;2022-09-20T02:02:31;11.63;;;4.65;;
57561;SDS011;43397;51.530;5.974;2022-09-20T02:05:14;8.27;;;4.22;;
57561;SDS011;43397;51.530;5.974;2022-09-20T02:08:16;11.77;;;5.25;;
57561;SDS011;43397;51.530;5.974;2022-09-20T02:11:04;11.10;;;4.82;;
57561;SDS011;43397;51.530;5.974;2022-09-20T02:13:49;12.30;;;4.22;;
57561;SDS011;43397;51.530;5.974;2022-09-20T02:16:37;12.70;;;4.30;;
57561;SDS011;43397;51.530;5.974;2022-09-20T02:19:30;10.63;;;4.82;;
57561;SDS011;43397;51.530;5.974;2022-09-20T02:22:12;10.35;;;5.07;;
57561;SDS011;43397;51.530;5.974;2022-09-20T02:24:48;9.65;;;5.47;;
57561;SDS011;43397;51.530;5.974;2022-09-20T02:27:22;12.02;;;5.72;;
57561;SDS011;43397;51.530;5.974;2022-09-20T02:32:28;10.10;;;5.65;;
57561;SDS011;43397;51.530;5.974;2022-09-20T02:35:16;11.10;;;4.82;;
57561;SDS011;43397;51.530;5.974;2022-09-20T02:37:53;10.93;;;5.05;;
57561;SDS011;43397;51.530;5.974;2022-09-20T02:40:26;8.88;;;4.90;;
57561;SDS011;43397;51.530;5.974;2022-09-20T02:43:07;13.18;;;5.70;;
57561;SDS011;43397;51.530;5.974;2022-09-20T02:45:41;10.27;;;5.90;;
57561;SDS011;43397;51.530;5.974;2022-09-20T02:48:14;11.50;;;5.25;;
57561;SDS011;43397;51.530;5.974;2022-09-20T02:50:48;12.18;;;5.70;;
57561;SDS011;43397;51.530;5.974;2022-09-20T02:53:24;10.02;;;5.13;;
57561;SDS011;43397;51.530;5.974;2022-09-20T02:56:03;10.10;;;5.82;;
57561;SDS011;43397;51.530;5.974;2022-09-20T02:58:39;14.20;;;5.47;;
57561;SDS011;43397;51.530;5.974;2022-09-20T03:01:13;12.18;;;5.50;;
57561;SDS011;43397;51.530;5.974;2022-09-20T03:03:50;9.70;;;5.60;;
57561;SDS011;43397;51.530;5.974;2022-09-20T03:06:26;12.07;;;5.15;;
57561;SDS011;43397;51.530;5.974;2022-09-20T03:09:00;13.85;;;5.30;;
57561;SDS011;43397;51.530;5.974;2022-09-20T03:11:33;11.77;;;5.07;;
57561;SDS011;43397;51.530;5.974;2022-09-20T03:14:13;10.38;;;5.00;;
57561;SDS011;43397;51.530;5.974;2022-09-20T03:16:45;9.75;;;4.97;;
57561;SDS011;43397;51.530;5.974;2022-09-20T03:19:27;10.55;;;5.28;;
57561;SDS011;43397;51.530;5.974;2022-09-20T03:22:02;11.25;;;5.13;;
57561;SDS011;43397;51.530;5.974;2022-09-20T03:24:40;9.13;;;4.72;;
57561;SDS011;43397;51.530;5.974;2022-09-20T03:27:18;7.93;;;5.03;;
57561;SDS011;43397;51.530;5.974;2022-09-20T03:29:57;8.27;;;5.05;;
57561;SDS011;43397;51.530;5.974;2022-09-20T03:32:38;8.43;;;4.63;;
57561;SDS011;43397;51.530;5.974;2022-09-20T03:35:21;14.55;;;5.30;;
57561;SDS011;43397;51.530;5.974;2022-09-20T03:38:02;12.98;;;5.40;;
57561;SDS011;43397;51.530;5.974;2022-09-20T03:43:50;11.13;;;4.60;;
57561;SDS011;43397;51.530;5.974;2022-09-20T03:46:26;12.30;;;5.00;;
57561;SDS011;43397;51.530;5.974;2022-09-20T03:48:58;8.77;;;4.93;;
57561;SDS011;43397;51.530;5.974;2022-09-20T03:51:46;10.73;;;4.85;;
57561;SDS011;43397;51.530;5.974;2022-09-20T03:54:31;10.38;;;5.47;;
57561;SDS011;43397;51.530;5.974;2022-09-20T03:57:28;13.32;;;5.75;;
57561;SDS011;43397;51.530;5.974;2022-09-20T04:00:18;13.38;;;5.68;;
57561;SDS011;43397;51.530;5.974;2022-09-20T04:02:52;14.80;;;5.50;;
57561;SDS011;43397;51.530;5.974;2022-09-20T04:05:27;8.68;;;5.35;;
57561;SDS011;43397;51.530;5.974;2022-09-20T04:08:05;14.23;;;5.95;;
57561;SDS011;43397;51.530;5.974;2022-09-20T04:10:43;11.75;;;5.18;;
57561;SDS011;43397;51.530;5.974;2022-09-20T04:13:19;10.77;;;5.82;;
57561;SDS011;43397;51.530;5.974;2022-09-20T04:16:02;11.95;;;5.65;;
57561;SDS011;43397;51.530;5.974;2022-09-20T04:18:40;11.35;;;5.40;;
57561;SDS011;43397;51.530;5.974;2022-09-20T04:21:13;11.15;;;5.97;;
57561;SDS011;43397;51.530;5.974;2022-09-20T04:23:44;12.52;;;5.75;;
57561;SDS011;43397;51.530;5.974;2022-09-20T04:26:15;12.98;;;5.47;;
57561;SDS011;43397;51.530;5.974;2022-09-20T04:28:47;13.38;;;5.72;;
57561;SDS011;43397;51.530;5.974;2022-09-20T04:31:20;12.80;;;5.68;;
57561;SDS011;43397;51.530;5.974;2022-09-20T04:33:56;11.52;;;5.75;;
57561;SDS011;43397;51.530;5.974;2022-09-20T04:36:35;13.63;;;6.05;;
57561;SDS011;43397;51.530;5.974;2022-09-20T04:39:18;12.05;;;5.53;;
57561;SDS011;43397;51.530;5.974;2022-09-20T04:45:11;11.95;;;5.55;;
57561;SDS011;43397;51.530;5.974;2022-09-20T04:51:10;10.75;;;4.97;;
57561;SDS011;43397;51.530;5.974;2022-09-20T04:54:22;8.75;;;5.05;;
57561;SDS011;43397;51.530;5.974;2022-09-20T04:57:17;11.48;;;4.68;;
57561;SDS011;43397;51.530;5.974;2022-09-20T05:00:00;9.77;;;4.80;;
57561;SDS011;43397;51.530;5.974;2022-09-20T05:11:17;11.15;;;4.80;;
57561;SDS011;43397;51.530;5.974;2022-09-20T05:13:55;11.57;;;5.03;;
57561;SDS011;43397;51.530;5.974;2022-09-20T05:16:40;11.40;;;5.38;;
57561;SDS011;43397;51.530;5.974;2022-09-20T05:19:24;11.38;;;5.35;;
57561;SDS011;43397;51.530;5.974;2022-09-20T05:22:02;8.95;;;5.18;;
57561;SDS011;43397;51.530;5.974;2022-09-20T05:24:45;9.85;;;5.55;;
57561;SDS011;43397;51.530;5.974;2022-09-20T05:27:32;10.00;;;5.35;;
57561;SDS011;43397;51.530;5.974;2022-09-20T05:30:10;11.35;;;5.82;;
57561;SDS011;43397;51.530;5.974;2022-09-20T05:32:42;13.85;;;5.43;;
57561;SDS011;43397;51.530;5.974;2022-09-20T05:35:17;10.25;;;6.10;;
57561;SDS011;43397;51.530;5.974;2022-09-20T05:37:49;11.77;;;5.22;;
57561;SDS011;43397;51.530;5.974;2022-09-20T05:40:28;12.07;;;5.45;;
57561;SDS011;43397;51.530;5.974;2022-09-20T05:43:01;12.82;;;5.35;;
57561;SDS011;43397;51.530;5.974;2022-09-20T05:45:42;9.77;;;5.32;;
57561;SDS011;43397;51.530;5.974;2022-09-20T05:48:12;9.82;;;5.10;;
57561;SDS011;43397;51.530;5.974;2022-09-20T05:50:44;11.32;;;5.45;;
57561;SDS011;43397;51.530;5.974;2022-09-20T05:53:30;10.20;;;4.80;;
57561;SDS011;43397;51.530;5.974;2022-09-20T05:56:11;9.80;;;5.68;;
57561;SDS011;43397;51.530;5.974;2022-09-20T05:58:53;9.40;;;4.90;;
57561;SDS011;43397;51.530;5.974;2022-09-20T06:01:30;12.98;;;5.22;;
57561;SDS011;43397;51.530;5.974;2022-09-20T06:04:05;10.68;;;5.38;;
57561;SDS011;43397;51.530;5.974;2022-09-20T06:06:44;13.02;;;5.50;;
57561;SDS011;43397;51.530;5.974;2022-09-20T06:09:24;9.85;;;5.35;;
57561;SDS011;43397;51.530;5.974;2022-09-20T06:12:00;10.60;;;5.47;;
57561;SDS011;43397;51.530;5.974;2022-09-20T06:14:39;8.03;;;5.23;;
57561;SDS011;43397;51.530;5.974;2022-09-20T06:17:23;10.20;;;4.57;;
57561;SDS011;43397;51.530;5.974;2022-09-20T06:19:57;11.00;;;5.80;;
57561;SDS011;43397;51.530;5.974;2022-09-20T06:22:30;8.77;;;5.72;;
57561;SDS011;43397;51.530;5.974;2022-09-20T06:25:02;15.88;;;5.60;;
57561;SDS011;43397;51.530;5.974;2022-09-20T06:27:40;9.80;;;5.30;;
57561;SDS011;43397;51.530;5.974;2022-09-20T06:30:13;12.50;;;6.00;;
57561;SDS011;43397;51.530;5.974;2022-09-20T06:32:55;14.05;;;7.05;;
57561;SDS011;43397;51.530;5.974;2022-09-20T06:35:23;11.80;;;6.03;;
57561;SDS011;43397;51.530;5.974;2022-09-20T06:37:53;11.73;;;6.22;;
57561;SDS011;43397;51.530;5.974;2022-09-20T06:40:32;12.48;;;5.60;;
57561;SDS011;43397;51.530;5.974;2022-09-20T06:43:03;11.50;;;6.15;;
57561;SDS011;43397;51.530;5.974;2022-09-20T06:45:31;15.57;;;6.45;;
57561;SDS011;43397;51.530;5.974;2022-09-20T06:47:57;11.68;;;6.18;;
57561;SDS011;43397;51.530;5.974;2022-09-20T06:50:22;9.45;;;5.53;;
57561;SDS011;43397;51.530;5.974;2022-09-20T06:52:48;11.90;;;6.30;;
57561;SDS011;43397;51.530;5.974;2022-09-20T06:55:15;12.65;;;6.78;;
57561;SDS011;43397;51.530;5.974;2022-09-20T06:57:45;12.60;;;5.82;;
57561;SDS011;43397;51.530;5.974;2022-09-20T07:00:12;8.45;;;5.65;;
57561;SDS011;43397;51.530;5.974;2022-09-20T07:02:40;10.90;;;5.40;;
57561;SDS011;43397;51.530;5.974;2022-09-20T07:05:08;11.25;;;5.20;;
57561;SDS011;43397;51.530;5.974;2022-09-20T07:07:38;9.73;;;4.88;;
57561;SDS011;43397;51.530;5.974;2022-09-20T07:10:04;10.15;;;5.38;;
57561;SDS011;43397;51.530;5.974;2022-09-20T07:12:30;11.05;;;5.63;;
57561;SDS011;43397;51.530;5.974;2022-09-20T07:14:55;9.98;;;4.72;;
57561;SDS011;43397;51.530;5.974;2022-09-20T07:17:21;10.15;;;5.28;;
57561;SDS011;43397;51.530;5.974;2022-09-20T07:19:48;11.55;;;4.43;;
57561;SDS011;43397;51.530;5.974;2022-09-20T07:22:20;7.97;;;4.40;;
57561;SDS011;43397;51.530;5.974;2022-09-20T07:24:49;9.55;;;4.30;;
57561;SDS011;43397;51.530;5.974;2022-09-20T07:27:15;9.75;;;5.22;;
57561;SDS011;43397;51.530;5.974;2022-09-20T07:29:41;7.72;;;4.13;;
57561;SDS011;43397;51.530;5.974;2022-09-20T07:32:07;11.95;;;4.47;;
57561;SDS011;43397;51.530;5.974;2022-09-20T07:34:33;10.77;;;4.63;;
57561;SDS011;43397;51.530;5.974;2022-09-20T07:37:00;10.52;;;4.40;;
57561;SDS011;43397;51.530;5.974;2022-09-20T07:39:26;8.75;;;4.22;;
57561;SDS011;43397;51.530;5.974;2022-09-20T07:41:51;9.38;;;4.10;;
57561;SDS011;43397;51.530;5.974;2022-09-20T07:44:17;9.07;;;4.63;;
57561;SDS011;43397;51.530;5.974;2022-09-20T07:46:43;8.00;;;3.95;;
57561;SDS011;43397;51.530;5.974;2022-09-20T07:49:09;10.23;;;3.95;;
57561;SDS011;43397;51.530;5.974;2022-09-20T07:51:35;11.82;;;4.55;;
57561;SDS011;43397;51.530;5.974;2022-09-20T07:54:02;7.25;;;3.88;;
57561;SDS011;43397;51.530;5.974;2022-09-20T07:56:28;8.85;;;4.68;;
57561;SDS011;43397;51.530;5.974;2022-09-20T07:58:54;9.05;;;3.70;;
57561;SDS011;43397;51.530;5.974;2022-09-20T08:01:20;9.25;;;3.53;;
57561;SDS011;43397;51.530;5.974;2022-09-20T08:03:46;8.23;;;3.40;;
57561;SDS011;43397;51.530;5.974;2022-09-20T08:06:12;7.40;;;2.85;;
57561;SDS011;43397;51.530;5.974;2022-09-20T08:08:38;7.97;;;3.05;;
57561;SDS011;43397;51.530;5.974;2022-09-20T08:11:06;11.65;;;3.40;;
57561;SDS011;43397;51.530;5.974;2022-09-20T08:13:37;9.05;;;2.70;;
57561;SDS011;43397;51.530;5.974;2022-09-20T08:16:03;10.07;;;3.42;;
57561;SDS011;43397;51.530;5.974;2022-09-20T08:18:31;7.65;;;3.35;;
57561;SDS011;43397;51.530;5.974;2022-09-20T08:21:01;7.82;;;3.50;;
57561;SDS011;43397;51.530;5.974;2022-09-20T08:23:28;9.68;;;4.00;;
57561;SDS011;43397;51.530;5.974;2022-09-20T08:25:55;9.60;;;3.22;;
57561;SDS011;43397;51.530;5.974;2022-09-20T08:28:22;8.07;;;2.63;;
57561;SDS011;43397;51.530;5.974;2022-09-20T08:30:48;7.40;;;3.20;;
57561;SDS011;43397;51.530;5.974;2022-09-20T08:33:14;10.82;;;3.40;;
57561;SDS011;43397;51.530;5.974;2022-09-20T08:35:40;9.55;;;2.78;;
57561;SDS011;43397;51.530;5.974;2022-09-20T08:38:06;6.97;;;2.72;;
57561;SDS011;43397;51.530;5.974;2022-09-20T08:40:32;9.52;;;3.50;;
57561;SDS011;43397;51.530;5.974;2022-09-20T08:42:59;9.27;;;2.45;;
57561;SDS011;43397;51.530;5.974;2022-09-20T08:45:27;8.10;;;2.65;;
57561;SDS011;43397;51.530;5.974;2022-09-20T08:47:54;7.60;;;2.33;;
57561;SDS011;43397;51.530;5.974;2022-09-20T08:50:22;7.43;;;3.28;;
57561;SDS011;43397;51.530;5.974;2022-09-20T08:52:49;8.45;;;2.72;;
57561;SDS011;43397;51.530;5.974;2022-09-20T08:55:19;9.82;;;2.13;;
57561;SDS011;43397;51.530;5.974;2022-09-20T08:57:48;5.55;;;1.40;;
57561;SDS011;43397;51.530;5.974;2022-09-20T09:00:15;5.60;;;1.70;;
57561;SDS011;43397;51.530;5.974;2022-09-20T09:02:44;8.82;;;1.83;;
57561;SDS011;43397;51.530;5.974;2022-09-20T09:05:15;5.68;;;1.90;;
57561;SDS011;43397;51.530;5.974;2022-09-20T09:07:53;6.28;;;2.20;;
57561;SDS011;43397;51.530;5.974;2022-09-20T09:10:19;6.00;;;1.67;;
57561;SDS011;43397;51.530;5.974;2022-09-20T09:12:45;6.57;;;1.60;;
57561;SDS011;43397;51.530;5.974;2022-09-20T09:15:16;8.35;;;1.75;;
57561;SDS011;43397;51.530;5.974;2022-09-20T09:17:50;4.07;;;1.23;;
57561;SDS011;43397;51.530;5.974;2022-09-20T09:20:19;4.28;;;1.30;;
57561;SDS011;43397;51.530;5.974;2022-09-20T09:22:47;5.13;;;1.70;;
57561;SDS011;43397;51.530;5.974;2022-09-20T09:25:23;8.20;;;2.03;;
57561;SDS011;43397;51.530;5.974;2022-09-20T09:27:51;6.13;;;1.55;;
57561;SDS011;43397;51.530;5.974;2022-09-20T09:30:19;7.85;;;1.98;;
57561;SDS011;43397;51.530;5.974;2022-09-20T09:32:47;7.13;;;1.65;;
57561;SDS011;43397;51.530;5.974;2022-09-20T09:35:26;6.93;;;1.83;;
57561;SDS011;43397;51.530;5.974;2022-09-20T09:37:55;5.53;;;1.52;;
57561;SDS011;43397;51.530;5.974;2022-09-20T09:40:22;6.65;;;1.55;;
57561;SDS011;43397;51.530;5.974;2022-09-20T09:42:49;7.60;;;1.80;;
57561;SDS011;43397;51.530;5.974;2022-09-20T09:45:23;5.57;;;1.52;;
57561;SDS011;43397;51.530;5.974;2022-09-20T09:47:53;8.15;;;1.20;;
57561;SDS011;43397;51.530;5.974;2022-09-20T09:50:21;5.18;;;1.70;;
57561;SDS011;43397;51.530;5.974;2022-09-20T09:53:08;6.97;;;1.80;;
57561;SDS011;43397;51.530;5.974;2022-09-20T09:55:48;4.97;;;1.67;;
57561;SDS011;43397;51.530;5.974;2022-09-20T09:58:41;10.05;;;2.05;;
57561;SDS011;43397;51.530;5.974;2022-09-20T10:01:18;8.48;;;2.00;;
57561;SDS011;43397;51.530;5.974;2022-09-20T10:03:52;6.07;;;1.90;;
57561;SDS011;43397;51.530;5.974;2022-09-20T10:06:28;7.03;;;1.60;;
57561;SDS011;43397;51.530;5.974;2022-09-20T10:09:03;4.60;;;1.25;;
57561;SDS011;43397;51.530;5.974;2022-09-20T10:11:42;6.32;;;1.63;;
57561;SDS011;43397;51.530;5.974;2022-09-20T10:14:20;8.90;;;1.83;;
57561;SDS011;43397;51.530;5.974;2022-09-20T10:17:02;6.95;;;1.85;;
57561;SDS011;43397;51.530;5.974;2022-09-20T10:19:42;6.65;;;1.40;;
57561;SDS011;43397;51.530;5.974;2022-09-20T10:22:22;6.32;;;1.30;;
57561;SDS011;43397;51.530;5.974;2022-09-20T10:25:00;10.63;;;1.90;;
57561;SDS011;43397;51.530;5.974;2022-09-20T10:27:41;6.97;;;1.65;;
57561;SDS011;43397;51.530;5.974;2022-09-20T10:30:19;5.65;;;1.52;;
57561;SDS011;43397;51.530;5.974;2022-09-20T10:32:51;5.68;;;1.30;;
57561;SDS011;43397;51.530;5.974;2022-09-20T10:35:32;4.88;;;1.35;;
57561;SDS011;43397;51.530;5.974;2022-09-20T10:38:11;4.90;;;1.88;;
57561;SDS011;43397;51.530;5.974;2022-09-20T10:40:42;3.75;;;0.98;;
57561;SDS011;43397;51.530;5.974;2022-09-20T10:43:25;4.03;;;0.98;;
57561;SDS011;43397;51.530;5.974;2022-09-20T10:46:05;5.13;;;1.30;;
57561;SDS011;43397;51.530;5.974;2022-09-20T10:48:40;3.85;;;1.15;;
57561;SDS011;43397;51.530;5.974;2022-09-20T10:51:10;6.53;;;0.85;;
57561;SDS011;43397;51.530;5.974;2022-09-20T10:53:45;4.45;;;1.10;;
57561;SDS011;43397;51.530;5.974;2022-09-20T10:56:23;5.38;;;1.05;;
57561;SDS011;43397;51.530;5.974;2022-09-20T10:59:03;5.32;;;1.02;;
57561;SDS011;43397;51.530;5.974;2022-09-20T11:01:45;3.85;;;1.00;;
57561;SDS011;43397;51.530;5.974;2022-09-20T11:04:42;3.70;;;1.10;;
57561;SDS011;43397;51.530;5.974;2022-09-20T11:07:22;2.88;;;0.88;;
57561;SDS011;43397;51.530;5.974;2022-09-20T11:10:01;2.53;;;0.73;;
57561;SDS011;43397;51.530;5.974;2022-09-20T11:12:33;5.25;;;1.25;;
57561;SDS011;43397;51.530;5.974;2022-09-20T11:15:04;8.07;;;1.17;;
57561;SDS011;43397;51.530;5.974;2022-09-20T11:17:40;6.32;;;1.15;;
57561;SDS011;43397;51.530;5.974;2022-09-20T11:20:14;3.28;;;0.82;;
57561;SDS011;43397;51.530;5.974;2022-09-20T11:22:45;4.13;;;0.95;;
57561;SDS011;43397;51.530;5.974;2022-09-20T11:25:17;3.65;;;0.90;;
57561;SDS011;43397;51.530;5.974;2022-09-20T11:27:48;2.95;;;0.80;;
57561;SDS011;43397;51.530;5.974;2022-09-20T11:30:19;6.03;;;0.85;;
57561;SDS011;43397;51.530;5.974;2022-09-20T11:32:48;4.45;;;0.93;;
57561;SDS011;43397;51.530;5.974;2022-09-20T11:35:24;5.20;;;0.98;;
57561;SDS011;43397;51.530;5.974;2022-09-20T11:37:56;4.30;;;0.75;;
57561;SDS011;43397;51.530;5.974;2022-09-20T11:40:31;3.17;;;0.63;;
57561;SDS011;43397;51.530;5.974;2022-09-20T11:43:01;3.55;;;0.80;;
57561;SDS011;43397;51.530;5.974;2022-09-20T11:45:30;5.10;;;1.05;;
57561;SDS011;43397;51.530;5.974;2022-09-20T11:47:57;4.13;;;0.93;;
57561;SDS011;43397;51.530;5.974;2022-09-20T11:50:41;3.00;;;0.75;;
57561;SDS011;43397;51.530;5.974;2022-09-20T11:53:20;4.82;;;0.85;;
57561;SDS011;43397;51.530;5.974;2022-09-20T11:55:56;3.30;;;0.70;;
57561;SDS011;43397;51.530;5.974;2022-09-20T11:58:29;2.92;;;0.65;;
57561;SDS011;43397;51.530;5.974;2022-09-20T12:00:55;5.05;;;1.00;;
57561;SDS011;43397;51.530;5.974;2022-09-20T12:03:26;5.97;;;0.93;;
57561;SDS011;43397;51.530;5.974;2022-09-20T12:05:57;4.30;;;1.10;;
57561;SDS011;43397;51.530;5.974;2022-09-20T12:08:25;5.80;;;1.60;;
57561;SDS011;43397;51.530;5.974;2022-09-20T12:10:54;3.63;;;0.98;;
57561;SDS011;43397;51.530;5.974;2022-09-20T12:13:24;5.00;;;0.82;;
57561;SDS011;43397;51.530;5.974;2022-09-20T12:15:57;3.78;;;0.90;;
57561;SDS011;43397;51.530;5.974;2022-09-20T12:18:26;4.47;;;0.98;;
57561;SDS011;43397;51.530;5.974;2022-09-20T12:21:18;2.67;;;0.93;;
57561;SDS011;43397;51.530;5.974;2022-09-20T12:26:45;2.70;;;0.70;;
57561;SDS011;43397;51.530;5.974;2022-09-20T12:32:28;2.75;;;0.70;;
57561;SDS011;43397;51.530;5.974;2022-09-20T12:34:57;2.25;;;0.63;;
57561;SDS011;43397;51.530;5.974;2022-09-20T12:37:24;3.55;;;0.73;;
57561;SDS011;43397;51.530;5.974;2022-09-20T12:39:51;3.55;;;0.70;;
57561;SDS011;43397;51.530;5.974;2022-09-20T12:42:23;3.92;;;0.82;;
57561;SDS011;43397;51.530;5.974;2022-09-20T12:44:56;2.60;;;0.75;;
57561;SDS011;43397;51.530;5.974;2022-09-20T12:47:25;6.28;;;0.90;;
57561;SDS011;43397;51.530;5.974;2022-09-20T12:49:53;2.58;;;0.70;;
57561;SDS011;43397;51.530;5.974;2022-09-20T12:52:22;4.78;;;0.88;;
57561;SDS011;43397;51.530;5.974;2022-09-20T12:54:52;4.10;;;0.70;;
57561;SDS011;43397;51.530;5.974;2022-09-20T12:57:25;2.15;;;0.60;;
57561;SDS011;43397;51.530;5.974;2022-09-20T12:59:55;4.35;;;0.65;;
57561;SDS011;43397;51.530;5.974;2022-09-20T13:02:41;4.40;;;0.75;;
57561;SDS011;43397;51.530;5.974;2022-09-20T13:05:33;4.57;;;0.85;;
57561;SDS011;43397;51.530;5.974;2022-09-20T13:08:02;3.90;;;0.90;;
57561;SDS011;43397;51.530;5.974;2022-09-20T13:10:37;2.38;;;0.68;;
57561;SDS011;43397;51.530;5.974;2022-09-20T13:13:12;7.88;;;1.05;;
57561;SDS011;43397;51.530;5.974;2022-09-20T13:15:47;4.38;;;0.90;;
57561;SDS011;43397;51.530;5.974;2022-09-20T13:18:14;4.30;;;0.77;;
57561;SDS011;43397;51.530;5.974;2022-09-20T13:20:42;5.22;;;0.90;;
57561;SDS011;43397;51.530;5.974;2022-09-20T13:23:13;5.63;;;0.82;;
57561;SDS011;43397;51.530;5.974;2022-09-20T13:25:43;3.95;;;0.60;;
57561;SDS011;43397;51.530;5.974;2022-09-20T13:28:13;2.33;;;0.55;;
57561;SDS011;43397;51.530;5.974;2022-09-20T13:33:22;2.55;;;0.52;;
57561;SDS011;43397;51.530;5.974;2022-09-20T13:35:49;3.88;;;0.63;;
57561;SDS011;43397;51.530;5.974;2022-09-20T13:38:18;3.50;;;0.70;;
57561;SDS011;43397;51.530;5.974;2022-09-20T13:40:46;2.47;;;0.60;;
57561;SDS011;43397;51.530;5.974;2022-09-20T13:43:17;3.10;;;0.80;;
57561;SDS011;43397;51.530;5.974;2022-09-20T13:45:51;3.83;;;0.73;;
57561;SDS011;43397;51.530;5.974;2022-09-20T13:48:19;3.33;;;0.77;;
57561;SDS011;43397;51.530;5.974;2022-09-20T13:50:49;2.35;;;0.60;;
57561;SDS011;43397;51.530;5.974;2022-09-20T13:53:16;5.95;;;0.90;;
57561;SDS011;43397;51.530;5.974;2022-09-20T13:55:43;4.50;;;0.80;;
57561;SDS011;43397;51.530;5.974;2022-09-20T13:58:16;4.47;;;0.70;;
57561;SDS011;43397;51.530;5.974;2022-09-20T14:00:45;4.15;;;0.85;;
57561;SDS011;43397;51.530;5.974;2022-09-20T14:03:13;10.38;;;0.85;;
57561;SDS011;43397;51.530;5.974;2022-09-20T14:05:44;4.50;;;0.80;;
57561;SDS011;43397;51.530;5.974;2022-09-20T14:08:11;2.17;;;0.60;;
57561;SDS011;43397;51.530;5.974;2022-09-20T14:10:45;3.05;;;0.52;;
57561;SDS011;43397;51.530;5.974;2022-09-20T14:13:13;4.05;;;0.85;;
57561;SDS011;43397;51.530;5.974;2022-09-20T14:15:41;3.42;;;0.80;;
57561;SDS011;43397;51.530;5.974;2022-09-20T14:18:10;4.07;;;1.10;;
57561;SDS011;43397;51.530;5.974;2022-09-20T14:20:40;4.75;;;1.00;;
57561;SDS011;43397;51.530;5.974;2022-09-20T14:23:13;2.58;;;0.70;;
57561;SDS011;43397;51.530;5.974;2022-09-20T14:26:03;3.30;;;0.73;;
57561;SDS011;43397;51.530;5.974;2022-09-20T14:28:30;4.93;;;1.13;;
57561;SDS011;43397;51.530;5.974;2022-09-20T14:31:02;4.38;;;0.80;;
57561;SDS011;43397;51.530;5.974;2022-09-20T14:33:31;4.25;;;0.85;;
57561;SDS011;43397;51.530;5.974;2022-09-20T14:35:57;2.40;;;0.85;;
57561;SDS011;43397;51.530;5.974;2022-09-20T14:38:23;3.15;;;0.57;;
57561;SDS011;43397;51.530;5.974;2022-09-20T14:40:51;5.55;;;1.00;;
57561;SDS011;43397;51.530;5.974;2022-09-20T14:43:23;5.10;;;0.90;;
57561;SDS011;43397;51.530;5.974;2022-09-20T14:45:51;7.63;;;2.50;;
57561;SDS011;43397;51.530;5.974;2022-09-20T14:48:30;4.45;;;1.40;;
57561;SDS011;43397;51.530;5.974;2022-09-20T14:51:08;5.40;;;1.52;;
57561;SDS011;43397;51.530;5.974;2022-09-20T14:53:43;4.07;;;0.77;;
57561;SDS011;43397;51.530;5.974;2022-09-20T14:56:10;3.75;;;0.60;;
57561;SDS011;43397;51.530;5.974;2022-09-20T15:01:32;3.03;;;0.50;;
57561;SDS011;43397;51.530;5.974;2022-09-20T15:03:59;4.75;;;0.77;;
57561;SDS011;43397;51.530;5.974;2022-09-20T15:06:33;3.35;;;0.70;;
57561;SDS011;43397;51.530;5.974;2022-09-20T15:08:59;3.33;;;0.68;;
57561;SDS011;43397;51.530;5.974;2022-09-20T15:11:25;2.83;;;0.60;;
57561;SDS011;43397;51.530;5.974;2022-09-20T15:13:50;2.75;;;0.80;;
57561;SDS011;43397;51.530;5.974;2022-09-20T15:16:18;8.48;;;0.82;;
57561;SDS011;43397;51.530;5.974;2022-09-20T15:18:44;3.83;;;0.90;;
57561;SDS011;43397;51.530;5.974;2022-09-20T15:21:10;2.70;;;0.60;;
57561;SDS011;43397;51.530;5.974;2022-09-20T15:23:36;5.03;;;0.77;;
57561;SDS011;43397;51.530;5.974;2022-09-20T15:26:02;5.30;;;0.90;;
57561;SDS011;43397;51.530;5.974;2022-09-20T15:28:28;5.25;;;1.48;;
57561;SDS011;43397;51.530;5.974;2022-09-20T15:30:54;2.47;;;0.63;;
57561;SDS011;43397;51.530;5.974;2022-09-20T15:33:24;4.80;;;0.60;;
57561;SDS011;43397;51.530;5.974;2022-09-20T15:35:53;5.47;;;0.80;;
57561;SDS011;43397;51.530;5.974;2022-09-20T15:38:18;4.28;;;0.65;;
57561;SDS011;43397;51.530;5.974;2022-09-20T15:40:45;5.72;;;1.00;;
57561;SDS011;43397;51.530;5.974;2022-09-20T15:43:12;5.60;;;1.00;;
57561;SDS011;43397;51.530;5.974;2022-09-20T15:45:40;3.25;;;0.77;;
57561;SDS011;43397;51.530;5.974;2022-09-20T15:48:12;6.72;;;0.82;;
57561;SDS011;43397;51.530;5.974;2022-09-20T15:50:39;1.77;;;0.50;;
57561;SDS011;43397;51.530;5.974;2022-09-20T15:53:06;4.95;;;0.90;;
57561;SDS011;43397;51.530;5.974;2022-09-20T15:55:32;3.70;;;0.60;;